Hoogstraten, Belgium
Current Conditions -  °F | °C
As of 2:08 PM on Thursday 30 Oct 2014 (Local Time) from EHGR Reporting Station
Haze Haze  
Wind Chill: 61°   Ceiling: 9700
Heat Index: 61°   Visibility: 5mi
Dew Point: 57°   Wind: 8mph
Humidity: 88%   Direction: 180°S
Pressure: 30.15"   Gusts: NA
Location:  51.4°N, 4.76°E
Report Text: EHGR 301308Z AUTO 18007KT 8000 BR FEW091 BKN097 BKN100 16/14 Q1021 BLU 16009KT 8000 FEW008 OVC150
Loading
Personal Weather Stations






























Interactive Weather Map
Tropical Storm Tracking
New forecast layout! Learn more

10-Day Weather Forecast

Advertisements
Track Severe Weather on mobile